Terminal Aerodrome Forecast
Issued by NWS Amarillo, TX

Home | Current Version | Previous Version | Text Only | Print | Product List | Glossary On
Versions: 1 2 3 4 5 6 7 8 9 10 11 12
000
FTUS44 KAMA 232320
TAFDHT
TAF
KDHT 232320Z 2400/2424 18014G24KT P6SM SCT110
     FM240100 29015G25KT P6SM TS SCT100CB BKN120
     FM240300 16011KT P6SM SCT120
     FM241300 21010KT P6SM SKC
     FM241800 17012G20KT P6SM SCT100 BKN150 PROB30 2421/2424 P6SM
      -TSRA BKN100CB=

USA.gov is the U.S. government's official web portal to all federal, state and local government web resources and services.